Time;durP1;ratioP1;P1;durP2;ratioP2;P2;SDS_P1;SDS_P2;PMS_P1;PMS_P2;Temp;Humidity;BMP_temperature;BMP_pressure;BME280_temperature;BME280_humidity;BME280_pressure;Samples;Min_cycle;Max_cycle;Signal;HPM_P1;HPM_P2
2023/02/24 00:01:38;;;;;;;66.50;37.97;;;11.00;54.40;;;;;;5045343;28;21002;-59
2023/02/24 00:04:07;;;;;;;57.60;36.60;;;11.00;47.80;;;;;;5043480;28;20489;-58
2023/02/24 00:06:35;;;;;;;61.90;36.07;;;11.00;46.60;;;;;;5043862;28;21079;-57
2023/02/24 00:09:23;;;;;;;67.17;37.83;;;11.00;41.10;;;;;;5044321;28;20446;-57
2023/02/24 00:11:59;;;;;;;60.73;36.13;;;11.00;66.70;;;;;;5051572;28;21035;-57
2023/02/24 00:14:29;;;;;;;63.93;37.40;;;11.10;99.90;;;;;;5046691;28;20474;-58
2023/02/24 00:16:57;;;;;;;59.97;35.27;;;11.20;99.90;;;;;;5049329;28;20433;-57
2023/02/24 00:19:24;;;;;;;57.70;35.20;;;11.20;98.60;;;;;;5046761;28;20444;-58
2023/02/24 00:21:51;;;;;;;54.93;32.93;;;11.20;91.30;;;;;;5048067;28;20583;-57
2023/02/24 00:24:17;;;;;;;61.10;36.10;;;11.20;54.90;;;;;;5047735;28;20449;-56
2023/02/24 00:26:44;;;;;;;61.20;37.73;;;11.20;49.30;;;;;;5052772;28;20575;-56
2023/02/24 00:29:11;;;;;;;56.00;37.20;;;11.20;43.10;;;;;;5053310;28;20455;-58
2023/02/24 00:35:03;;;;;;;64.07;39.40;;;11.30;38.70;;;;;;5017682;28;20477;-58
2023/02/24 00:37:29;;;;;;;66.80;38.67;;;11.20;20.70;;;;;;5052893;28;20473;-58
2023/02/24 00:39:57;;;;;;;62.27;38.23;;;11.10;19.50;;;;;;5046802;28;20447;-58
2023/02/24 00:42:23;;;;;;;66.90;40.00;;;10.90;27.00;;;;;;5046757;28;20215;-58
2023/02/24 00:44:49;;;;;;;66.43;40.60;;;10.80;31.80;;;;;;5053377;28;20827;-58
2023/02/24 00:47:16;;;;;;;63.57;37.83;;;10.90;29.70;;;;;;5053839;28;20450;-56
2023/02/24 00:49:42;;;;;;;60.90;38.57;;;11.00;25.80;;;;;;5051649;28;20201;-57
2023/02/24 00:52:13;;;;;;;70.50;38.70;;;11.00;28.10;;;;;;5053205;28;20486;-58
2023/02/24 00:54:43;;;;;;;69.83;40.03;;;11.00;21.10;;;;;;5058646;28;20515;-58
2023/02/24 00:57:10;;;;;;;63.43;37.87;;;11.00;29.20;;;;;;5044390;28;20487;-56
2023/02/24 00:59:37;;;;;;;70.77;42.53;;;10.90;20.10;;;;;;5046960;28;20445;-57
2023/02/24 01:02:05;;;;;;;63.00;36.30;;;11.00;25.80;;;;;;5055000;28;20513;-58
2023/02/24 01:04:32;;;;;;;59.00;37.70;;;10.80;26.00;;;;;;5052848;28;20916;-57
2023/02/24 01:07:01;;;;;;;58.50;35.03;;;10.80;21.20;;;;;;5047801;28;20994;-56
2023/02/24 01:09:31;;;;;;;58.13;36.57;;;10.60;21.30;;;;;;5046251;28;20847;-56
2023/02/24 01:14:46;;;;;;;61.17;37.30;;;10.60;14.90;;;;;;5047005;28;20465;-55
2023/02/24 01:17:13;;;;;;;55.60;34.37;;;10.60;18.00;;;;;;5047017;28;20446;-57
2023/02/24 01:19:39;;;;;;;50.37;32.17;;;10.50;17.90;;;;;;5045912;28;20442;-57
2023/02/24 01:22:08;;;;;;;54.20;32.50;;;10.50;13.40;;;;;;5054577;28;20950;-57
2023/02/24 01:24:38;;;;;;;52.10;30.90;;;10.50;18.80;;;;;;5049122;28;20538;-57
2023/02/24 01:27:05;;;;;;;47.57;30.23;;;10.40;18.90;;;;;;5053391;28;21173;-57
2023/02/24 01:29:31;;;;;;;44.30;29.27;;;10.50;24.80;;;;;;5054299;28;20451;-57
2023/02/24 01:31:57;;;;;;;46.30;30.30;;;10.40;26.80;;;;;;5058026;28;20447;-57
2023/02/24 01:34:24;;;;;;;46.07;29.50;;;10.40;27.70;;;;;;5054850;28;20192;-57
2023/02/24 01:36:50;;;;;;;44.80;29.13;;;10.50;26.40;;;;;;5059004;28;20443;-59
2023/02/24 01:39:16;;;;;;;50.50;29.63;;;10.40;35.90;;;;;;5049858;28;20990;-56
2023/02/24 01:41:44;;;;;;;45.60;29.27;;;10.40;33.90;;;;;;5047236;28;20447;-57
2023/02/24 01:44:13;;;;;;;43.40;27.23;;;10.40;31.00;;;;;;5053295;28;20937;-58
2023/02/24 01:46:44;;;;;;;43.67;26.47;;;10.30;31.80;;;;;;5062169;28;20503;-57
2023/02/24 01:49:16;;;;;;;37.20;23.30;;;10.30;23.30;;;;;;5050487;28;20769;-59
2023/02/24 01:52:05;;;;;;;40.57;26.90;;;10.30;22.20;;;;;;5049657;28;20442;-56
2023/02/24 01:55:02;;;;;;;33.53;23.17;;;10.40;8.00;;;;;;5045546;28;20474;-57
2023/02/24 01:57:30;;;;;;;32.93;21.37;;;10.30;1.00;;;;;;5043795;28;20570;-57
2023/02/24 02:00:08;;;;;;;31.93;21.57;;;10.30;1.00;;;;;;5045324;28;20451;-58
2023/02/24 02:02:34;;;;;;;32.80;20.20;;;10.30;1.00;;;;;;5049291;28;20455;-57
2023/02/24 02:05:04;;;;;;;29.37;20.33;;;10.30;1.00;;;;;;5046566;28;20631;-57
2023/02/24 02:07:31;;;;;;;29.23;21.07;;;10.30;1.00;;;;;;5045895;28;20473;-58
2023/02/24 02:09:59;;;;;;;29.13;19.87;;;10.30;1.00;;;;;;5046560;28;20454;-57
2023/02/24 02:12:26;;;;;;;32.63;21.27;;;10.30;1.00;;;;;;5043794;28;20534;-56
2023/02/24 02:14:54;;;;;;;26.10;18.83;;;10.20;1.00;;;;;;5043453;28;20573;-57
2023/02/24 02:17:31;;;;;;;23.70;17.97;;;10.10;1.00;;;;;;5047323;28;20449;-57
2023/02/24 02:20:00;;;;;;;26.47;18.03;;;10.10;1.00;;;;;;5045609;28;20451;-57
2023/02/24 02:22:40;;;;;;;26.43;18.47;;;10.30;1.00;;;;;;5044468;28;20458;-56
2023/02/24 02:25:39;;;;;;;23.33;17.00;;;10.20;1.00;;;;;;5046900;28;20534;-58
2023/02/24 02:28:44;;;;;;;24.77;17.37;;;10.30;1.00;;;;;;5046642;28;20475;-56
2023/02/24 02:31:49;;;;;;;22.20;16.03;;;10.30;1.00;;;;;;5050627;28;20539;-57
2023/02/24 02:34:45;;;;;;;21.93;16.83;;;10.40;1.00;;;;;;5046904;28;20482;-58
2023/02/24 02:37:33;;;;;;;23.90;17.53;;;10.30;1.00;;;;;;5061871;28;20772;-56
2023/02/24 02:40:15;;;;;;;21.37;15.67;;;10.30;1.00;;;;;;5059228;28;20955;-58
2023/02/24 02:43:08;;;;;;;25.37;16.90;;;10.30;1.00;;;;;;5052816;28;20449;-56
2023/02/24 02:45:46;;;;;;;24.03;15.80;;;10.20;1.00;;;;;;5057693;28;20807;-57
2023/02/24 02:48:19;;;;;;;21.60;15.57;;;10.20;1.00;;;;;;5047183;28;20446;-56
2023/02/24 02:51:03;;;;;;;24.83;17.27;;;10.20;1.00;;;;;;5053686;28;20446;-56
2023/02/24 02:53:51;;;;;;;25.90;16.10;;;10.10;1.00;;;;;;5053468;28;20452;-57
2023/02/24 02:56:29;;;;;;;24.43;16.60;;;10.10;1.00;;;;;;5051635;28;20460;-57
2023/02/24 02:58:57;;;;;;;26.30;15.70;;;10.00;1.00;;;;;;5054850;28;20478;-56
2023/02/24 03:01:28;;;;;;;23.00;15.70;;;10.00;1.00;;;;;;5058251;28;20446;-57
2023/02/24 03:03:58;;;;;;;25.23;16.77;;;9.90;1.00;;;;;;5043783;28;20440;-57
2023/02/24 03:06:33;;;;;;;27.43;18.90;;;9.90;1.00;;;;;;5053457;28;20474;-58
2023/02/24 03:09:17;;;;;;;28.33;17.80;;;9.90;1.00;;;;;;5055143;28;20454;-57
2023/02/24 03:11:47;;;;;;;28.53;17.80;;;9.90;1.00;;;;;;5056902;28;20446;-56
2023/02/24 03:14:15;;;;;;;24.20;16.33;;;9.80;1.00;;;;;;5047183;28;20441;-55
2023/02/24 03:16:44;;;;;;;27.87;17.83;;;9.80;1.00;;;;;;5057326;28;20442;-57
2023/02/24 03:19:15;;;;;;;26.27;16.67;;;9.60;13.10;;;;;;5058930;28;20791;-56
2023/02/24 03:21:44;;;;;;;22.30;13.20;;;9.60;23.00;;;;;;5052477;28;20484;-57
2023/02/24 03:24:11;;;;;;;18.57;13.60;;;9.40;30.00;;;;;;5052151;28;20446;-57
2023/02/24 03:26:42;;;;;;;21.40;12.30;;;9.40;43.10;;;;;;5052426;28;20458;-55
2023/02/24 03:29:31;;;;;;;18.50;11.40;;;9.30;42.60;;;;;;5046291;28;20451;-56
2023/02/24 03:32:03;;;;;;;21.77;11.60;;;9.20;34.20;;;;;;5048132;28;20443;-55
2023/02/24 03:34:46;;;;;;;19.80;12.37;;;9.10;55.80;;;;;;5050819;28;20467;-56
2023/02/24 03:37:12;;;;;;;21.40;12.77;;;9.00;83.20;;;;;;5047303;28;20434;-56
2023/02/24 03:39:38;;;;;;;21.63;14.70;;;9.00;99.90;;;;;;5051738;28;20497;-56
2023/02/24 03:42:09;;;;;;;21.10;13.20;;;8.90;99.90;;;;;;5052001;28;20216;-57
2023/02/24 03:44:35;;;;;;;22.80;12.70;;;8.90;99.90;;;;;;5059630;28;20451;-56
2023/02/24 03:47:01;;;;;;;19.93;12.10;;;8.90;99.90;;;;;;5062764;28;20978;-57
2023/02/24 03:49:27;;;;;;;19.60;11.60;;;9.00;99.90;;;;;;5058272;28;20795;-56
2023/02/24 03:52:01;;;;;;;24.20;13.50;;;8.90;99.90;;;;;;5061523;28;20417;-56
2023/02/24 03:54:45;;;;;;;23.90;12.40;;;8.80;99.90;;;;;;5053789;28;20211;-57
2023/02/24 03:57:11;;;;;;;23.50;12.23;;;8.80;99.90;;;;;;5059229;28;20452;-55
2023/02/24 03:59:42;;;;;;;20.23;11.90;;;8.80;99.90;;;;;;5050398;28;20837;-58
2023/02/24 04:02:22;;;;;;;21.83;12.60;;;8.70;99.90;;;;;;5050560;28;20215;-56
2023/02/24 04:04:56;;;;;;;30.47;14.80;;;8.70;99.90;;;;;;5051242;28;20474;-56
2023/02/24 04:07:39;;;;;;;25.77;14.70;;;8.70;99.90;;;;;;5049848;28;20456;-58
2023/02/24 04:10:15;;;;;;;26.13;13.90;;;8.80;99.90;;;;;;5060207;28;20951;-57
2023/02/24 04:13:13;;;;;;;20.73;11.90;;;8.90;99.90;;;;;;5047182;28;20453;-57
2023/02/24 04:15:42;;;;;;;20.00;11.23;;;8.90;99.90;;;;;;5053133;28;20501;-58
2023/02/24 04:18:21;;;;;;;23.53;11.60;;;9.00;99.90;;;;;;5052221;28;20441;-58
2023/02/24 04:20:52;;;;;;;20.23;11.17;;;8.90;99.90;;;;;;5052807;28;20936;-56
2023/02/24 04:23:22;;;;;;;17.60;11.07;;;8.80;99.90;;;;;;5051279;28;20449;-56
2023/02/24 04:25:51;;;;;;;22.07;10.73;;;8.80;99.90;;;;;;5054199;28;20439;-56
2023/02/24 04:28:21;;;;;;;20.60;11.90;;;8.70;99.90;;;;;;5061199;28;20442;-57
2023/02/24 04:30:50;;;;;;;20.03;10.93;;;8.70;99.90;;;;;;5062710;28;20525;-57
2023/02/24 04:33:17;;;;;;;17.07;9.30;;;8.60;99.90;;;;;;5052708;28;20444;-58
2023/02/24 04:35:49;;;;;;;16.93;10.20;;;8.60;99.90;;;;;;5055256;28;21012;-57
2023/02/24 04:38:15;;;;;;;23.67;11.30;;;8.70;99.90;;;;;;5051384;28;20446;-56
2023/02/24 04:40:41;;;;;;;21.10;11.77;;;8.70;99.90;;;;;;5050088;28;20443;-56
2023/02/24 04:43:07;;;;;;;18.50;9.73;;;8.70;99.90;;;;;;5048007;28;20466;-56
2023/02/24 04:45:33;;;;;;;23.37;12.70;;;8.80;99.90;;;;;;5046588;28;20796;-57
2023/02/24 04:48:01;;;;;;;18.63;10.87;;;8.80;99.90;;;;;;5050209;28;20497;-57
2023/02/24 04:50:32;;;;;;;21.80;11.63;;;8.80;99.90;;;;;;5053151;28;20576;-55
2023/02/24 04:53:00;;;;;;;20.43;11.97;;;8.70;99.90;;;;;;5046262;28;22390;-58
2023/02/24 04:55:36;;;;;;;21.30;12.00;;;8.80;99.90;;;;;;5050987;28;20492;-57
2023/02/24 04:58:02;;;;;;;23.63;11.77;;;8.90;99.90;;;;;;5047175;28;20525;-57
2023/02/24 05:00:34;;;;;;;20.70;11.83;;;8.90;99.90;;;;;;5054967;28;20839;-56
2023/02/24 05:03:04;;;;;;;27.47;14.17;;;9.00;99.90;;;;;;5064593;28;20445;-56
2023/02/24 05:05:32;;;;;;;23.30;13.10;;;9.00;99.90;;;;;;5061952;28;20813;-57
2023/02/24 05:08:06;;;;;;;25.23;12.97;;;9.00;99.90;;;;;;5049370;28;20471;-57
2023/02/24 05:10:46;;;;;;;21.70;11.40;;;9.00;99.90;;;;;;5047207;28;20429;-57
2023/02/24 05:13:14;;;;;;;19.70;11.70;;;9.00;99.90;;;;;;5049269;28;20446;-56
2023/02/24 05:15:41;;;;;;;21.87;11.67;;;9.10;99.90;;;;;;5061753;28;20476;-57
2023/02/24 05:18:16;;;;;;;22.47;12.53;;;9.10;99.90;;;;;;5056407;28;20936;-59
2023/02/24 05:23:38;;;;;;;24.13;13.37;;;9.20;94.70;;;;;;5059581;28;20501;-57
2023/02/24 05:26:07;;;;;;;20.90;11.63;;;9.20;61.70;;;;;;5055906;28;20778;-57
2023/02/24 05:28:39;;;;;;;25.07;12.83;;;9.20;27.50;;;;;;5054553;28;20941;-58
2023/02/24 05:31:13;;;;;;;22.13;12.83;;;9.10;30.50;;;;;;5055217;28;21801;-57
2023/02/24 05:33:44;;;;;;;21.07;13.00;;;9.00;38.40;;;;;;5059854;28;20449;-58
2023/02/24 05:36:15;;;;;;;29.20;14.00;;;8.90;34.50;;;;;;5062220;28;20554;-56
2023/02/24 05:38:42;;;;;;;16.50;9.73;;;8.70;50.50;;;;;;5053820;28;20516;-57
2023/02/24 05:41:17;;;;;;;9.93;6.50;;;8.70;46.70;;;;;;5062480;28;20513;-56
2023/02/24 05:43:51;;;;;;;13.60;7.40;;;8.80;10.50;;;;;;5056293;28;21022;-57
2023/02/24 05:46:18;;;;;;;10.63;5.80;;;8.70;1.00;;;;;;5062864;28;20442;-57
2023/02/24 05:48:44;;;;;;;12.37;6.10;;;8.50;1.00;;;;;;5062317;28;20496;-58
2023/02/24 05:51:11;;;;;;;12.43;7.00;;;8.30;1.00;;;;;;5058127;28;20477;-57
2023/02/24 05:53:40;;;;;;;11.60;6.07;;;8.30;1.00;;;;;;5055397;28;20219;-57
2023/02/24 05:56:07;;;;;;;12.00;6.10;;;8.30;1.00;;;;;;5058954;28;20544;-57
2023/02/24 05:58:33;;;;;;;17.13;7.83;;;8.00;1.00;;;;;;5058959;28;20438;-55
2023/02/24 06:01:05;;;;;;;13.97;6.67;;;7.70;29.30;;;;;;5062394;28;21123;-56
2023/02/24 06:03:34;;;;;;;11.43;5.60;;;7.60;49.20;;;;;;5051837;28;20192;-56
2023/02/24 06:06:04;;;;;;;10.57;5.80;;;7.60;79.40;;;;;;5050562;28;20449;-56
2023/02/24 06:08:40;;;;;;;11.57;6.60;;;7.70;88.10;;;;;;5058108;28;20493;-57
2023/02/24 06:11:09;;;;;;;13.30;6.40;;;7.70;57.10;;;;;;5059786;28;20483;-58
2023/02/24 06:13:36;;;;;;;13.40;5.93;;;7.70;60.10;;;;;;5061045;28;20470;-57
2023/02/24 06:16:04;;;;;;;12.93;6.73;;;7.70;82.90;;;;;;5057824;28;20566;-56
2023/02/24 06:18:29;;;;;;;10.17;4.90;;;7.80;70.40;;;;;;5054342;28;20443;-58
2023/02/24 06:20:55;;;;;;;8.17;4.57;;;7.60;92.20;;;;;;5052511;28;20502;-57
2023/02/24 06:23:21;;;;;;;4.93;3.40;;;7.70;79.50;;;;;;5058297;28;20307;-58
2023/02/24 06:25:46;;;;;;;5.77;3.13;;;7.50;57.30;;;;;;5057786;28;20193;-56
2023/02/24 06:28:12;;;;;;;3.70;2.47;;;7.40;43.10;;;;;;5059740;28;20187;-57
2023/02/24 06:30:37;;;;;;;8.00;2.70;;;7.30;49.70;;;;;;5054540;28;20683;-57
2023/02/24 06:33:04;;;;;;;9.60;3.80;;;7.30;66.80;;;;;;5051061;28;20196;-56
2023/02/24 06:35:33;;;;;;;5.97;2.37;;;7.40;52.10;;;;;;5065722;28;20203;-58
2023/02/24 06:37:59;;;;;;;7.80;2.60;;;7.40;13.30;;;;;;5062172;28;20884;-58
2023/02/24 06:40:24;;;;;;;4.13;1.97;;;7.20;9.30;;;;;;5062503;28;20581;-56
2023/02/24 06:42:52;;;;;;;7.57;2.70;;;7.20;1.00;;;;;;5057795;28;20184;-57
2023/02/24 06:45:19;;;;;;;4.73;2.30;;;7.10;1.00;;;;;;5063471;28;20295;-60
2023/02/24 06:47:47;;;;;;;9.83;3.00;;;7.00;1.00;;;;;;5058471;28;21624;-57
2023/02/24 06:50:19;;;;;;;11.00;3.80;;;7.10;1.00;;;;;;5062743;28;20453;-58
2023/02/24 06:52:46;;;;;;;9.23;3.90;;;6.90;1.00;;;;;;5062526;28;20493;-57
2023/02/24 06:55:27;;;;;;;10.90;3.67;;;6.90;1.00;;;;;;5066171;28;20461;-57
2023/02/24 06:57:58;;;;;;;7.87;3.27;;;7.00;1.00;;;;;;5055402;28;20957;-58
2023/02/24 07:00:38;;;;;;;11.97;3.50;;;6.80;1.00;;;;;;5055430;28;20469;-57
2023/02/24 07:03:13;;;;;;;12.47;6.03;;;6.80;1.00;;;;;;5061998;28;20447;-58
2023/02/24 07:05:52;;;;;;;11.53;3.40;;;6.90;1.00;;;;;;5057911;28;20447;-58
2023/02/24 07:08:23;;;;;;;12.27;4.13;;;7.00;1.00;;;;;;5052829;28;20496;-58
2023/02/24 07:10:58;;;;;;;11.93;4.67;;;7.10;1.00;;;;;;5055373;28;20525;-59
2023/02/24 07:13:28;;;;;;;9.97;4.60;;;7.10;1.00;;;;;;5056492;28;20442;-58
2023/02/24 07:15:54;;;;;;;12.23;4.67;;;7.10;1.00;;;;;;5061415;28;20455;-58
2023/02/24 07:18:21;;;;;;;6.60;2.93;;;7.00;1.00;;;;;;5063181;28;20449;-56
2023/02/24 07:20:47;;;;;;;15.93;3.87;;;7.20;1.00;;;;;;5058039;28;20946;-58
2023/02/24 07:23:15;;;;;;;11.47;3.40;;;7.10;1.00;;;;;;5062005;28;20470;-57
2023/02/24 07:25:42;;;;;;;16.30;4.80;;;6.90;1.00;;;;;;5051803;28;20473;-58
2023/02/24 07:28:09;;;;;;;10.77;4.30;;;7.00;1.00;;;;;;5056550;28;20512;-57
2023/02/24 07:30:37;;;;;;;11.13;2.90;;;7.00;1.00;;;;;;5062965;28;20480;-58
2023/02/24 07:33:03;;;;;;;7.27;3.10;;;6.80;1.00;;;;;;5058038;28;20967;-57
2023/02/24 07:35:29;;;;;;;8.07;3.27;;;6.80;1.00;;;;;;5058552;28;20599;-58
2023/02/24 07:38:00;;;;;;;11.60;3.10;;;6.50;1.00;;;;;;5056789;28;20188;-57
2023/02/24 07:40:27;;;;;;;8.30;3.33;;;6.60;1.00;;;;;;5061734;28;20945;-57
2023/02/24 07:42:53;;;;;;;6.27;2.80;;;6.60;1.00;;;;;;5061155;28;20939;-58
2023/02/24 07:45:19;;;;;;;6.77;2.63;;;6.70;1.00;;;;;;5060990;28;20441;-57
2023/02/24 07:47:45;;;;;;;11.03;3.37;;;6.50;1.00;;;;;;5067079;28;20279;-56
2023/02/24 07:50:17;;;;;;;11.63;3.23;;;7.50;1.00;;;;;;5055018;28;20513;-59
2023/02/24 07:52:48;;;;;;;9.13;2.57;;;6.50;1.00;;;;;;5066448;28;20234;-57
2023/02/24 07:55:14;;;;;;;9.27;3.07;;;6.50;1.00;;;;;;5056672;28;20530;-56
2023/02/24 07:57:45;;;;;;;17.23;3.40;;;6.40;1.00;;;;;;5049988;28;20446;-56
2023/02/24 08:00:18;;;;;;;10.77;3.40;;;6.30;1.00;;;;;;5051922;28;20569;-58
2023/02/24 08:02:45;;;;;;;4.37;2.33;;;6.30;1.00;;;;;;5059643;28;20442;-58
2023/02/24 08:05:11;;;;;;;11.20;2.60;;;6.40;1.00;;;;;;5060745;28;21074;-59
2023/02/24 08:07:36;;;;;;;12.40;3.70;;;6.50;1.00;;;;;;5051178;28;20447;-57
2023/02/24 08:10:36;;;;;;;13.27;3.30;;;6.50;1.00;;;;;;5052484;28;20224;-58
2023/02/24 08:12:55;;;;;;;16.20;3.27;;;6.60;1.00;;;;;;5059697;28;20223;-56
2023/02/24 08:15:23;;;;;;;7.57;2.87;;;6.70;1.00;;;;;;5062819;28;20462;-56
2023/02/24 08:17:58;;;;;;;11.17;4.27;;;6.70;1.00;;;;;;5057185;28;20488;-57
2023/02/24 08:20:25;;;;;;;13.93;4.00;;;6.70;1.00;;;;;;5059275;28;20961;-59
2023/02/24 08:22:52;;;;;;;15.30;5.57;;;6.70;1.00;;;;;;5060084;28;20524;-57
2023/02/24 08:25:21;;;;;;;12.27;4.50;;;6.90;1.00;;;;;;5059704;28;20450;-58
2023/02/24 08:27:55;;;;;;;5.83;2.40;;;6.90;1.00;;;;;;5061533;28;20547;-59
2023/02/24 08:30:22;;;;;;;9.30;2.70;;;7.00;1.00;;;;;;5065656;28;20849;-60
2023/02/24 08:33:01;;;;;;;12.20;2.93;;;7.00;1.00;;;;;;5056858;28;20545;-57
2023/02/24 08:35:34;;;;;;;6.20;3.27;;;6.90;1.00;;;;;;5063774;28;20501;-59
2023/02/24 08:38:13;;;;;;;10.83;2.67;;;6.90;1.00;;;;;;5062621;28;20489;-56
2023/02/24 08:40:51;;;;;;;10.93;2.97;;;7.00;1.00;;;;;;5060061;28;20525;-57
2023/02/24 08:43:32;;;;;;;11.00;2.60;;;7.10;1.00;;;;;;5053633;28;20448;-57
2023/02/24 08:46:20;;;;;;;11.17;3.17;;;7.40;1.00;;;;;;5064235;28;20454;-56
2023/02/24 08:48:54;;;;;;;8.07;1.93;;;7.20;1.00;;;;;;5059239;28;20446;-58
2023/02/24 08:51:35;;;;;;;12.23;3.57;;;7.10;1.00;;;;;;5058932;28;20512;-59
2023/02/24 08:54:14;;;;;;;16.17;2.50;;;7.30;1.00;;;;;;5066026;28;20472;-58
2023/02/24 08:56:47;;;;;;;9.50;2.43;;;7.30;1.00;;;;;;5057985;28;20457;-58
2023/02/24 08:59:28;;;;;;;10.43;2.63;;;7.40;1.00;;;;;;5058022;28;20438;-57
2023/02/24 09:04:47;;;;;;;13.63;2.77;;;7.40;1.00;;;;;;5063060;28;20445;-57
2023/02/24 09:07:19;;;;;;;13.33;3.60;;;7.40;1.00;;;;;;5056237;28;20817;-58
2023/02/24 09:09:46;;;;;;;6.33;2.20;;;7.20;1.00;;;;;;5062980;28;20458;-57
2023/02/24 09:12:20;;;;;;;8.27;3.10;;;7.30;1.00;;;;;;5059403;28;20470;-57
2023/02/24 09:14:48;;;;;;;10.87;2.77;;;7.30;1.00;;;;;;5059011;28;20484;-57
2023/02/24 09:17:19;;;;;;;7.63;2.80;;;7.40;1.00;;;;;;5061841;28;20447;-58
2023/02/24 09:22:32;;;;;;;7.23;2.80;;;7.70;1.00;;;;;;5058302;28;20496;-58
2023/02/24 09:25:20;;;;;;;10.70;2.50;;;8.00;1.00;;;;;;5057567;28;20442;-59
2023/02/24 09:28:06;;;;;;;5.50;1.83;;;8.10;1.00;;;;;;5057369;28;20465;-59
2023/02/24 09:30:37;;;;;;;9.57;3.23;;;8.10;1.00;;;;;;5060472;28;20442;-58
2023/02/24 09:33:17;;;;;;;8.47;1.80;;;8.20;1.00;;;;;;5064749;28;20537;-59
2023/02/24 09:35:47;;;;;;;5.60;2.77;;;8.10;1.00;;;;;;5063518;28;20489;-57
2023/02/24 09:38:17;;;;;;;9.97;2.93;;;7.90;1.00;;;;;;5060665;28;20452;-58
2023/02/24 09:40:48;;;;;;;8.50;2.50;;;7.80;1.00;;;;;;5058504;28;20450;-57
2023/02/24 09:43:29;;;;;;;8.13;2.80;;;7.70;1.00;;;;;;5067937;28;20441;-58
2023/02/24 09:46:14;;;;;;;9.17;2.40;;;7.60;1.00;;;;;;5054667;28;20461;-59
2023/02/24 09:49:04;;;;;;;6.97;2.33;;;7.80;1.00;;;;;;5054900;28;20472;-58
2023/02/24 09:51:41;;;;;;;7.27;2.97;;;8.10;1.00;;;;;;5054048;28;20523;-59
2023/02/24 09:54:18;;;;;;;10.53;3.37;;;8.40;1.00;;;;;;5061724;28;20450;-58
2023/02/24 09:57:15;;;;;;;8.17;2.57;;;8.70;1.00;;;;;;5054217;28;20489;-57
2023/02/24 10:00:23;;;;;;;8.73;2.23;;;8.80;1.00;;;;;;5047414;28;20443;-58
2023/02/24 10:03:18;;;;;;;4.70;2.60;;;8.80;1.00;;;;;;5051696;28;20466;-58
2023/02/24 10:06:10;;;;;;;6.40;3.13;;;9.20;1.00;;;;;;5053545;28;20438;-57
2023/02/24 10:08:42;;;;;;;7.77;3.27;;;9.40;1.00;;;;;;5054795;28;20447;-57
2023/02/24 10:11:11;;;;;;;8.77;2.90;;;9.20;1.00;;;;;;5057641;28;20882;-57
2023/02/24 10:13:50;;;;;;;7.13;2.73;;;9.20;1.00;;;;;;5061433;28;20918;-58
2023/02/24 10:16:22;;;;;;;13.13;2.80;;;9.60;1.00;;;;;;5066450;28;20469;-59
2023/02/24 10:19:13;;;;;;;9.20;3.30;;;9.50;1.00;;;;;;5059874;28;20910;-59
2023/02/24 10:21:59;;;;;;;7.00;3.20;;;9.50;1.00;;;;;;5060015;28;20437;-58
2023/02/24 10:24:48;;;;;;;9.60;2.97;;;9.70;1.00;;;;;;5056335;28;20442;-58
2023/02/24 10:27:29;;;;;;;5.10;2.60;;;9.90;1.00;;;;;;5054734;28;20448;-58
2023/02/24 10:30:09;;;;;;;10.93;3.50;;;10.10;1.00;;;;;;5057831;28;20443;-58
2023/02/24 10:32:52;;;;;;;6.03;3.10;;;10.10;23.60;;;;;;5055158;28;20463;-58
2023/02/24 10:35:21;;;;;;;10.00;3.00;;;10.60;1.00;;;;;;5062912;28;20524;-59
2023/02/24 10:37:51;;;;;;;10.57;3.83;;;10.90;99.90;;;;;;5061942;28;20446;-59
2023/02/24 10:40:25;;;;;;;5.57;3.60;;;11.00;1.00;;;;;;5063669;28;20430;-58
2023/02/24 10:43:09;;;;;;;5.40;3.00;;;11.10;1.00;;;;;;5059242;28;20432;-59
2023/02/24 10:45:43;;;;;;;12.40;4.20;;;10.90;39.50;;;;;;5058224;28;20500;-58
2023/02/24 10:48:24;;;;;;;10.50;3.20;;;10.80;21.80;;;;;;5052734;28;20981;-59
2023/02/24 10:51:07;;;;;;;10.33;5.20;;;10.40;1.00;;;;;;5056897;28;20442;-54
2023/02/24 10:53:35;;;;;;;9.67;3.40;;;10.40;1.00;;;;;;5058409;28;20863;-54
2023/02/24 10:56:40;;;;;;;10.40;3.77;;;10.50;1.00;;;;;;5049487;28;20569;-55
2023/02/24 11:08:08;;;;;;;6.20;3.07;;;10.00;1.00;;;;;;5069374;28;20931;-54
2023/02/24 11:10:51;;;;;;;7.20;3.40;;;9.90;1.00;;;;;;5050970;28;20421;-57
2023/02/24 11:18:50;;;;;;;5.43;3.70;;;10.00;1.00;;;;;;5049438;28;20442;-54
2023/02/24 11:21:16;;;;;;;8.23;4.00;;;10.00;1.00;;;;;;5045400;28;20451;-54
2023/02/24 11:24:01;;;;;;;9.13;4.10;;;10.10;1.00;;;;;;5048205;28;20417;-54
2023/02/24 11:26:37;;;;;;;11.37;4.50;;;10.10;1.00;;;;;;5043596;28;20544;-54
2023/02/24 11:29:10;;;;;;;6.77;4.20;;;10.00;1.00;;;;;;5047677;28;20500;-54
2023/02/24 11:31:51;;;;;;;5.77;4.23;;;10.00;1.00;;;;;;5059452;28;20434;-54
2023/02/24 11:34:51;;;;;;;5.57;4.27;;;9.70;1.00;;;;;;5053296;28;20545;-55
2023/02/24 11:37:42;;;;;;;8.13;5.40;;;9.60;1.00;;;;;;5045030;28;20443;-55
2023/02/24 11:40:22;;;;;;;6.00;4.40;;;9.60;1.00;;;;;;5049138;28;20431;-55
2023/02/24 11:43:05;;;;;;;5.67;3.70;;;9.70;1.00;;;;;;5048349;28;20522;-55
2023/02/24 11:45:38;;;;;;;5.33;4.60;;;9.70;1.00;;;;;;5048832;28;20481;-55
2023/02/24 11:48:18;;;;;;;6.60;4.10;;;9.80;1.00;;;;;;5048173;28;20939;-56
2023/02/24 11:50:47;;;;;;;4.17;3.60;;;9.90;1.00;;;;;;5048616;28;20437;-55
2023/02/24 11:53:44;;;;;;;7.27;4.23;;;9.90;1.00;;;;;;5049752;28;20470;-54
2023/02/24 11:56:41;;;;;;;5.17;3.17;;;9.80;1.00;;;;;;5051277;28;20549;-55
2023/02/24 11:59:11;;;;;;;6.80;3.50;;;9.80;1.00;;;;;;5068712;28;20950;-55
2023/02/24 12:02:11;;;;;;;5.70;3.50;;;9.90;1.00;;;;;;5056005;28;20453;-56
2023/02/24 12:05:01;;;;;;;6.00;3.23;;;10.00;1.00;;;;;;5050881;28;20434;-56
2023/02/24 12:07:32;;;;;;;4.33;3.30;;;9.80;1.00;;;;;;5060679;28;20412;-56
2023/02/24 12:10:15;;;;;;;7.73;3.80;;;9.80;1.00;;;;;;5060801;28;20783;-55
2023/02/24 12:12:49;;;;;;;5.73;3.50;;;9.90;1.00;;;;;;5051102;28;20447;-56
2023/02/24 12:15:29;;;;;;;5.60;3.97;;;9.90;1.00;;;;;;5067176;28;20457;-55
2023/02/24 12:18:14;;;;;;;6.70;4.10;;;9.80;1.00;;;;;;5060247;28;20461;-55
2023/02/24 12:20:46;;;;;;;4.50;3.47;;;9.70;1.00;;;;;;5051056;28;20434;-56
2023/02/24 12:23:21;;;;;;;5.90;4.00;;;9.60;1.00;;;;;;5052434;28;20433;-55
2023/02/24 12:26:05;;;;;;;5.00;3.67;;;9.70;1.00;;;;;;5050044;28;20953;-56
2023/02/24 12:28:43;;;;;;;6.43;4.50;;;9.70;1.00;;;;;;5052450;28;20436;-55
2023/02/24 12:31:28;;;;;;;8.70;4.63;;;9.70;1.00;;;;;;5048098;28;20449;-54
2023/02/24 12:34:10;;;;;;;6.30;4.03;;;9.80;1.00;;;;;;5051747;28;20442;-56
2023/02/24 12:37:11;;;;;;;7.20;4.90;;;9.60;1.00;;;;;;5050602;28;20812;-55
2023/02/24 12:39:48;;;;;;;8.23;4.50;;;9.60;1.00;;;;;;5051158;28;20773;-55
2023/02/24 12:42:44;;;;;;;7.33;5.30;;;9.60;1.00;;;;;;5056959;28;20714;-56
2023/02/24 12:45:37;;;;;;;9.63;5.00;;;9.30;1.00;;;;;;5055421;28;20935;-55
2023/02/24 12:48:44;;;;;;;7.87;6.07;;;9.10;1.00;;;;;;5051153;28;20435;-55
2023/02/24 12:51:32;;;;;;;7.30;5.73;;;8.90;1.00;;;;;;5040390;28;20439;-56
2023/02/24 12:54:17;;;;;;;9.27;5.07;;;9.00;1.00;;;;;;5050464;28;20478;-54
2023/02/24 12:57:08;;;;;;;6.77;4.83;;;9.00;1.00;;;;;;5043964;28;20447;-56
2023/02/24 12:59:38;;;;;;;7.63;4.80;;;8.70;1.00;;;;;;5047742;28;20482;-55
2023/02/24 13:02:25;;;;;;;9.90;5.73;;;9.10;1.00;;;;;;5049041;28;20482;-54
2023/02/24 13:05:32;;;;;;;8.70;5.73;;;9.20;1.00;;;;;;5051727;28;20672;-70
2023/02/24 13:08:35;;;;;;;7.50;5.57;;;9.10;1.00;;;;;;4978548;28;20441;-55
2023/02/24 13:11:00;;;;;;;10.50;5.53;;;9.20;1.00;;;;;;5050392;28;21113;-54
2023/02/24 13:13:43;;;;;;;5.70;4.70;;;9.10;1.00;;;;;;5051176;28;20423;-54
2023/02/24 13:16:11;;;;;;;8.87;5.90;;;9.10;1.00;;;;;;5050318;28;20212;-54
2023/02/24 13:18:39;;;;;;;9.73;6.30;;;9.20;1.00;;;;;;5064163;28;20495;-55
2023/02/24 13:21:14;;;;;;;7.33;5.07;;;9.30;1.00;;;;;;5054836;28;20443;-54
2023/02/24 13:23:41;;;;;;;6.87;5.20;;;9.30;1.00;;;;;;5051558;28;20446;-55
2023/02/24 13:26:07;;;;;;;10.37;5.70;;;9.20;1.00;;;;;;5050968;28;20439;-53
2023/02/24 13:28:37;;;;;;;6.70;5.50;;;9.30;1.00;;;;;;5048487;28;20568;-55
2023/02/24 13:31:09;;;;;;;11.00;5.20;;;9.50;1.00;;;;;;5046912;28;20538;-58
2023/02/24 13:33:37;;;;;;;8.33;5.40;;;9.70;1.00;;;;;;5051064;28;20473;-55
2023/02/24 13:36:13;;;;;;;11.57;5.17;;;9.80;1.00;;;;;;5053037;28;20820;-54
2023/02/24 13:38:44;;;;;;;9.50;5.17;;;9.90;1.00;;;;;;5066456;28;20459;-54
2023/02/24 13:41:22;;;;;;;8.23;5.50;;;9.70;1.00;;;;;;5070261;28;20476;-53
2023/02/24 13:44:04;;;;;;;10.60;6.30;;;9.80;1.00;;;;;;5060032;28;20443;-53
2023/02/24 13:47:00;;;;;;;12.77;7.10;;;9.80;1.00;;;;;;5050877;28;20443;-54
2023/02/24 13:49:50;;;;;;;9.43;4.87;;;10.00;1.00;;;;;;5018886;28;20462;-55
2023/02/24 13:52:23;;;;;;;9.03;6.03;;;9.90;1.00;;;;;;5050783;28;20506;-55
2023/02/24 13:55:01;;;;;;;9.07;5.70;;;9.90;1.00;;;;;;5047885;28;20558;-55
2023/02/24 13:57:54;;;;;;;10.67;6.17;;;9.80;1.00;;;;;;5054333;28;20507;-54